Time,TemperatureF,DewpointF,PressureIn,WindDirection,WindDirectionDegrees,WindSpeedMPH,WindSpeedGustMPH,Humidity,HourlyPrecipIn,Conditions,Clouds,dailyrainin,SolarRadiationWatts/m^2,SoftwareType,DateUTC
2013-01-26 00:22:00,46.0,16.0,-100.00,NNE,24,3.0,7.0,29,0.00,,,0.00,18.000000,,2013-01-26 00:22:00,
2013-01-26 00:32:00,46.0,16.0,-100.00,NNE,24,3.0,7.0,29,0.00,,,0.00,18.000000,,2013-01-26 00:32:00,
2013-01-26 00:42:00,46.0,16.0,-100.00,NNE,24,3.0,7.0,29,0.00,,,0.00,18.000000,,2013-01-26 00:42:00,
2013-01-26 00:52:00,46.0,16.0,-100.00,NNE,24,3.0,7.0,29,0.00,,,0.00,18.000000,,2013-01-26 00:52:00,
2013-01-26 01:22:00,43.0,15.0,-100.00,SW,229,0.0,4.0,32,0.00,,,0.00,1.000000,,2013-01-26 01:22:00,
2013-01-26 01:32:00,43.0,15.0,-100.00,SW,229,0.0,4.0,32,0.00,,,0.00,1.000000,,2013-01-26 01:32:00,
2013-01-26 01:42:00,43.0,15.0,-100.00,SW,229,0.0,4.0,32,0.00,,,0.00,1.000000,,2013-01-26 01:42:00,
2013-01-26 01:52:00,43.0,15.0,-100.00,SW,229,0.0,4.0,32,0.00,,,0.00,1.000000,,2013-01-26 01:52:00,
2013-01-26 02:22:00,39.0,22.0,-100.00,SSW,211,5.0,7.0,50,0.00,,,0.00,0.000000,,2013-01-26 02:22:00,
2013-01-26 02:32:00,39.0,22.0,-100.00,SSW,211,5.0,7.0,50,0.00,,,0.00,0.000000,,2013-01-26 02:32:00,
2013-01-26 02:42:00,39.0,22.0,-100.00,SSW,211,5.0,7.0,50,0.00,,,0.00,0.000000,,2013-01-26 02:42:00,
2013-01-26 02:52:00,39.0,22.0,-100.00,SSW,211,5.0,7.0,50,0.00,,,0.00,0.000000,,2013-01-26 02:52:00,
2013-01-26 03:22:00,37.0,20.0,-100.00,NNE,16,0.0,6.0,50,0.00,,,0.00,0.000000,,2013-01-26 03:22:00,
2013-01-26 03:32:00,37.0,20.0,-100.00,NNE,16,0.0,6.0,50,0.00,,,0.00,0.000000,,2013-01-26 03:32:00,
2013-01-26 03:43:00,37.0,20.0,-100.00,NNE,16,0.0,6.0,50,0.00,,,0.00,0.000000,,2013-01-26 03:43:00,
2013-01-26 03:52:00,37.0,20.0,-100.00,NNE,16,0.0,6.0,50,0.00,,,0.00,0.000000,,2013-01-26 03:52:00,
2013-01-26 04:21:00,37.0,21.0,-100.00,NNE,33,2.0,4.0,52,0.00,,,0.00,0.000000,,2013-01-26 04:21:00,
2013-01-26 04:32:00,37.0,21.0,-100.00,NNE,33,2.0,4.0,52,0.00,,,0.00,0.000000,,2013-01-26 04:32:00,
2013-01-26 04:42:00,37.0,21.0,-100.00,NNE,33,2.0,4.0,52,0.00,,,0.00,0.000000,,2013-01-26 04:42:00,
2013-01-26 04:52:00,37.0,21.0,-100.00,NNE,33,2.0,4.0,52,0.00,,,0.00,0.000000,,2013-01-26 04:52:00,
2013-01-26 05:23:00,36.0,21.0,-100.00,NNE,24,2.0,4.0,54,0.00,,,0.00,0.000000,,2013-01-26 05:23:00,
2013-01-26 05:33:00,36.0,21.0,-100.00,NNE,24,2.0,4.0,54,0.00,,,0.00,0.000000,,2013-01-26 05:33:00,
2013-01-26 05:41:00,36.0,21.0,-100.00,NNE,24,2.0,4.0,54,0.00,,,0.00,0.000000,,2013-01-26 05:41:00,
2013-01-26 05:52:00,36.0,21.0,-100.00,NNE,24,2.0,4.0,54,0.00,,,0.00,0.000000,,2013-01-26 05:52:00,
2013-01-26 06:21:00,35.0,20.0,-100.00,NE,35,3.0,6.0,53,0.00,,,0.00,0.000000,,2013-01-26 06:21:00,
2013-01-26 06:32:00,35.0,20.0,-100.00,NE,35,3.0,6.0,53,0.00,,,0.00,0.000000,,2013-01-26 06:32:00,
2013-01-26 06:42:00,35.0,20.0,-100.00,NE,35,3.0,6.0,53,0.00,,,0.00,0.000000,,2013-01-26 06:42:00,
2013-01-26 06:51:00,35.0,20.0,-100.00,NE,35,3.0,6.0,53,0.00,,,0.00,0.000000,,2013-01-26 06:51:00,
2013-01-26 07:21:00,35.0,20.0,-100.00,NNW,333,2.0,4.0,55,0.00,,,0.00,0.000000,,2013-01-26 07:21:00,
2013-01-26 07:33:00,35.0,20.0,-100.00,NNW,333,2.0,4.0,55,0.00,,,0.00,0.000000,,2013-01-26 07:33:00,
2013-01-26 07:41:00,35.0,20.0,-100.00,NNW,333,2.0,4.0,55,0.00,,,0.00,0.000000,,2013-01-26 07:41:00,
2013-01-26 07:51:00,35.0,20.0,-100.00,NNW,333,2.0,4.0,55,0.00,,,0.00,0.000000,,2013-01-26 07:51:00,
2013-01-26 08:21:00,34.0,21.0,-100.00,NNW,347,2.0,4.0,59,0.00,,,0.00,0.000000,,2013-01-26 08:21:00,
2013-01-26 08:32:00,34.0,21.0,-100.00,NNW,347,2.0,4.0,59,0.00,,,0.00,0.000000,,2013-01-26 08:32:00,
2013-01-26 08:42:00,34.0,21.0,-100.00,NNW,347,2.0,4.0,59,0.00,,,0.00,0.000000,,2013-01-26 08:42:00,
2013-01-26 08:53:00,34.0,21.0,-100.00,NNW,347,2.0,4.0,59,0.00,,,0.00,0.000000,,2013-01-26 08:53:00,
2013-01-26 09:22:00,36.0,21.0,-100.00,North,6,3.0,5.0,54,0.00,,,0.00,0.000000,,2013-01-26 09:22:00,
2013-01-26 09:32:00,36.0,21.0,-100.00,North,6,3.0,5.0,54,0.00,,,0.00,0.000000,,2013-01-26 09:32:00,
2013-01-26 09:42:00,36.0,21.0,-100.00,North,6,3.0,5.0,54,0.00,,,0.00,0.000000,,2013-01-26 09:42:00,
2013-01-26 09:51:00,36.0,21.0,-100.00,North,6,3.0,5.0,54,0.00,,,0.00,0.000000,,2013-01-26 09:51:00,
2013-01-26 10:21:00,35.0,22.0,-100.00,NNW,346,1.0,5.0,58,0.00,,,0.00,0.000000,,2013-01-26 10:21:00,
2013-01-26 10:32:00,35.0,22.0,-100.00,NNW,346,1.0,5.0,58,0.00,,,0.00,0.000000,,2013-01-26 10:32:00,
2013-01-26 10:42:00,35.0,22.0,-100.00,NNW,346,1.0,5.0,58,0.00,,,0.00,0.000000,,2013-01-26 10:42:00,
2013-01-26 10:52:00,35.0,22.0,-100.00,NNW,346,1.0,5.0,58,0.00,,,0.00,0.000000,,2013-01-26 10:52:00,
2013-01-26 11:22:00,36.0,23.0,-100.00,SW,226,2.0,4.0,58,0.00,,,0.00,0.000000,,2013-01-26 11:22:00,
2013-01-26 11:32:00,36.0,23.0,-100.00,SW,226,2.0,4.0,58,0.00,,,0.00,0.000000,,2013-01-26 11:32:00,
2013-01-26 11:42:00,36.0,23.0,-100.00,SW,226,2.0,4.0,58,0.00,,,0.00,0.000000,,2013-01-26 11:42:00,
2013-01-26 11:52:00,36.0,23.0,-100.00,SW,226,2.0,4.0,58,0.00,,,0.00,0.000000,,2013-01-26 11:52:00,
2013-01-26 12:23:00,37.0,24.0,-100.00,WSW,251,3.0,10.0,58,0.00,,,0.00,0.000000,,2013-01-26 12:23:00,
2013-01-26 12:33:00,37.0,24.0,-100.00,WSW,251,3.0,10.0,58,0.00,,,0.00,0.000000,,2013-01-26 12:33:00,
2013-01-26 12:42:00,37.0,24.0,-100.00,WSW,251,3.0,10.0,58,0.00,,,0.00,0.000000,,2013-01-26 12:42:00,
2013-01-26 12:52:00,37.0,24.0,-100.00,WSW,251,3.0,10.0,58,0.00,,,0.00,0.000000,,2013-01-26 12:52:00,
2013-01-26 13:22:00,35.0,24.0,-100.00,West,261,3.0,8.0,63,0.00,,,0.00,0.000000,,2013-01-26 13:22:00,
2013-01-26 13:32:00,35.0,24.0,-100.00,West,261,3.0,8.0,63,0.00,,,0.00,0.000000,,2013-01-26 13:32:00,
2013-01-26 13:42:00,35.0,24.0,-100.00,West,261,3.0,8.0,63,0.00,,,0.00,0.000000,,2013-01-26 13:42:00,
2013-01-26 13:52:00,35.0,24.0,-100.00,West,261,3.0,8.0,63,0.00,,,0.00,0.000000,,2013-01-26 13:52:00,
2013-01-26 14:22:00,36.0,23.0,-100.00,WSW,257,4.0,8.0,60,0.00,,,0.00,0.000000,,2013-01-26 14:22:00,
2013-01-26 14:32:00,36.0,23.0,-100.00,WSW,257,4.0,8.0,60,0.00,,,0.00,0.000000,,2013-01-26 14:32:00,
2013-01-26 14:43:00,36.0,23.0,-100.00,WSW,257,4.0,8.0,60,0.00,,,0.00,0.000000,,2013-01-26 14:43:00,
2013-01-26 14:52:00,36.0,23.0,-100.00,WSW,257,4.0,8.0,60,0.00,,,0.00,0.000000,,2013-01-26 14:52:00,
2013-01-26 15:22:00,38.0,25.0,-100.00,West,267,6.0,10.0,58,0.00,,,0.00,12.000000,,2013-01-26 15:22:00,
2013-01-26 15:32:00,38.0,25.0,-100.00,West,267,6.0,10.0,58,0.00,,,0.00,12.000000,,2013-01-26 15:32:00,
2013-01-26 15:43:00,38.0,25.0,-100.00,West,267,6.0,10.0,58,0.00,,,0.00,12.000000,,2013-01-26 15:43:00,
2013-01-26 15:52:00,38.0,25.0,-100.00,West,267,6.0,10.0,58,0.00,,,0.00,12.000000,,2013-01-26 15:52:00,
2013-01-26 16:22:00,40.0,23.0,-100.00,WNW,289,4.0,14.0,50,0.00,,,0.00,150.000000,,2013-01-26 16:22:00,
2013-01-26 16:33:00,40.0,23.0,-100.00,WNW,289,4.0,14.0,50,0.00,,,0.00,150.000000,,2013-01-26 16:33:00,
2013-01-26 16:42:00,40.0,23.0,-100.00,WNW,289,4.0,14.0,50,0.00,,,0.00,150.000000,,2013-01-26 16:42:00,
2013-01-26 16:53:00,40.0,23.0,-100.00,WNW,289,4.0,14.0,50,0.00,,,0.00,150.000000,,2013-01-26 16:53:00,
2013-01-26 17:22:00,42.0,23.0,-100.00,WNW,290,4.0,10.0,47,0.00,,,0.00,343.000000,,2013-01-26 17:22:00,
2013-01-26 17:33:00,42.0,23.0,-100.00,WNW,290,4.0,10.0,47,0.00,,,0.00,343.000000,,2013-01-26 17:33:00,
2013-01-26 17:42:00,42.0,23.0,-100.00,WNW,290,4.0,10.0,47,0.00,,,0.00,343.000000,,2013-01-26 17:42:00,
2013-01-26 17:52:00,42.0,23.0,-100.00,WNW,290,4.0,10.0,47,0.00,,,0.00,343.000000,,2013-01-26 17:52:00,
2013-01-26 18:22:00,44.0,24.0,-100.00,NNW,345,4.0,9.0,45,0.00,,,0.00,464.000000,,2013-01-26 18:22:00,
2013-01-26 18:33:00,44.0,24.0,-100.00,NNW,345,4.0,9.0,45,0.00,,,0.00,464.000000,,2013-01-26 18:33:00,
2013-01-26 18:42:00,44.0,24.0,-100.00,NNW,345,4.0,9.0,45,0.00,,,0.00,464.000000,,2013-01-26 18:42:00,
2013-01-26 18:52:00,44.0,24.0,-100.00,NNW,345,4.0,9.0,45,0.00,,,0.00,464.000000,,2013-01-26 18:52:00,
2013-01-26 19:22:00,46.0,24.0,-100.00,NNW,346,5.0,9.0,42,0.00,,,0.00,530.000000,,2013-01-26 19:22:00,
2013-01-26 19:32:00,46.0,24.0,-100.00,NNW,346,5.0,9.0,42,0.00,,,0.00,530.000000,,2013-01-26 19:32:00,
2013-01-26 19:42:00,46.0,24.0,-100.00,NNW,346,5.0,9.0,42,0.00,,,0.00,530.000000,,2013-01-26 19:42:00,
2013-01-26 19:52:00,46.0,24.0,-100.00,NNW,346,5.0,9.0,42,0.00,,,0.00,530.000000,,2013-01-26 19:52:00,
2013-01-26 20:22:00,48.0,24.0,-100.00,North,356,6.0,10.0,38,0.00,,,0.00,528.000000,,2013-01-26 20:22:00,
2013-01-26 20:32:00,48.0,24.0,-100.00,North,356,6.0,10.0,38,0.00,,,0.00,528.000000,,2013-01-26 20:32:00,
2013-01-26 20:42:00,48.0,24.0,-100.00,North,356,6.0,10.0,38,0.00,,,0.00,528.000000,,2013-01-26 20:42:00,
2013-01-26 20:52:00,48.0,24.0,-100.00,North,356,6.0,10.0,38,0.00,,,0.00,528.000000,,2013-01-26 20:52:00,
2013-01-26 21:22:00,50.0,23.0,-100.00,NNW,348,5.0,9.0,34,0.00,,,0.00,497.000000,,2013-01-26 21:22:00,
2013-01-26 21:32:00,50.0,23.0,-100.00,NNW,348,5.0,9.0,34,0.00,,,0.00,497.000000,,2013-01-26 21:32:00,
2013-01-26 21:42:00,50.0,23.0,-100.00,NNW,348,5.0,9.0,34,0.00,,,0.00,497.000000,,2013-01-26 21:42:00,
2013-01-26 21:51:00,50.0,23.0,-100.00,NNW,348,5.0,9.0,34,0.00,,,0.00,497.000000,,2013-01-26 21:51:00,
2013-01-26 22:22:00,48.0,22.0,-100.00,NNE,17,4.0,9.0,36,0.00,,,0.00,240.000000,,2013-01-26 22:22:00,
2013-01-26 22:32:00,48.0,22.0,-100.00,NNE,17,4.0,9.0,36,0.00,,,0.00,240.000000,,2013-01-26 22:32:00,
2013-01-26 22:42:00,48.0,22.0,-100.00,NNE,17,4.0,9.0,36,0.00,,,0.00,240.000000,,2013-01-26 22:42:00,
2013-01-26 22:52:00,48.0,22.0,-100.00,NNE,17,4.0,9.0,36,0.00,,,0.00,240.000000,,2013-01-26 22:52:00,
2013-01-26 23:22:00,48.0,21.0,-100.00,NNE,31,4.0,8.0,34,0.00,,,0.00,112.000000,,2013-01-26 23:22:00,
2013-01-26 23:32:00,48.0,21.0,-100.00,NNE,31,4.0,8.0,34,0.00,,,0.00,112.000000,,2013-01-26 23:32:00,
2013-01-26 23:42:00,48.0,21.0,-100.00,NNE,31,4.0,8.0,34,0.00,,,0.00,112.000000,,2013-01-26 23:42:00,
2013-01-26 23:52:00,48.0,21.0,-100.00,NNE,31,4.0,8.0,34,0.00,,,0.00,112.000000,,2013-01-26 23:52:00,